Time;durP1;ratioP1;P1;durP2;ratioP2;P2;SDS_P1;SDS_P2;PMS_P1;PMS_P2;Temp;Humidity;BMP_temperature;BMP_pressure;BME280_temperature;BME280_humidity;BME280_pressure;Samples;Min_cycle;Max_cycle;Signal;HPM_P1;HPM_P2
2022/12/05 00:02:18;;;;;;;;;54.75;42.25;;;;;;;;5040118;28;45225;-71
2022/12/05 00:04:43;;;;;;;;;46.50;39.00;;;;;;;;5048538;28;46462;-71
2022/12/05 00:07:08;;;;;;;;;51.50;40.25;;;;;;;;5041655;28;45301;-71
2022/12/05 00:09:34;;;;;;;;;47.50;39.00;;;;;;;;5052505;28;45328;-71
2022/12/05 00:11:59;;;;;;;;;43.75;36.00;;;;;;;;5048807;28;45288;-71
2022/12/05 00:14:24;;;;;;;;;53.75;39.50;;;;;;;;5042709;28;45365;-71
2022/12/05 00:16:49;;;;;;;;;50.00;41.25;;;;;;;;5036371;28;46166;-71
2022/12/05 00:19:15;;;;;;;;;49.75;40.50;;;;;;;;5048280;28;45372;-71
2022/12/05 00:21:40;;;;;;;;;42.75;35.75;;;;;;;;5050452;28;45411;-71
2022/12/05 00:24:06;;;;;;;;;50.00;38.75;;;;;;;;5050988;28;46133;-71
2022/12/05 00:26:32;;;;;;;;;33.25;28.75;;;;;;;;5049297;28;45451;-72
2022/12/05 00:28:57;;;;;;;;;47.00;41.75;;;;;;;;5053505;28;45404;-71
2022/12/05 00:31:23;;;;;;;;;52.00;39.75;;;;;;;;5051247;28;45320;-71
2022/12/05 00:33:49;;;;;;;;;50.25;36.75;;;;;;;;5054675;28;46165;-71
2022/12/05 00:36:24;;;;;;;;;49.25;39.50;;;;;;;;5047227;28;45225;-73
2022/12/05 00:38:50;;;;;;;;;49.75;39.00;;;;;;;;5042770;28;45210;-71
2022/12/05 00:41:17;;;;;;;;;55.00;40.25;;;;;;;;5045329;28;45698;-71
2022/12/05 00:43:43;;;;;;;;;43.50;36.25;;;;;;;;5044086;28;45409;-72
2022/12/05 00:46:11;;;;;;;;;47.75;35.00;;;;;;;;5048624;28;45439;-72
2022/12/05 00:48:36;;;;;;;;;41.50;36.00;;;;;;;;5030641;28;45289;-72
2022/12/05 00:51:02;;;;;;;;;43.00;38.25;;;;;;;;5052562;28;45236;-71
2022/12/05 00:53:27;;;;;;;;;48.75;38.00;;;;;;;;5048055;28;45381;-71
2022/12/05 00:55:53;;;;;;;;;39.50;30.00;;;;;;;;5050984;28;45213;-71
2022/12/05 00:58:18;;;;;;;;;48.25;38.75;;;;;;;;5051125;28;45246;-71
2022/12/05 01:00:43;;;;;;;;;46.00;38.00;;;;;;;;5052154;28;45166;-72
2022/12/05 01:03:08;;;;;;;;;57.00;40.50;;;;;;;;5041184;28;45222;-72
2022/12/05 01:05:33;;;;;;;;;42.00;39.75;;;;;;;;5051907;28;45983;-72
2022/12/05 01:07:59;;;;;;;;;44.50;37.75;;;;;;;;5030864;28;45198;-71
2022/12/05 01:10:24;;;;;;;;;58.75;42.00;;;;;;;;5041042;28;45298;-71
2022/12/05 01:12:49;;;;;;;;;48.00;39.50;;;;;;;;5041908;28;45413;-72
2022/12/05 01:15:15;;;;;;;;;54.75;39.00;;;;;;;;5043771;28;45317;-71
2022/12/05 01:17:40;;;;;;;;;51.00;39.50;;;;;;;;5044034;28;45552;-72
2022/12/05 01:20:05;;;;;;;;;49.50;37.75;;;;;;;;5052994;28;45707;-72
2022/12/05 01:22:31;;;;;;;;;45.25;32.75;;;;;;;;5046758;28;45460;-71
2022/12/05 01:24:57;;;;;;;;;42.50;36.75;;;;;;;;5054067;28;45418;-71
2022/12/05 01:27:22;;;;;;;;;51.25;39.50;;;;;;;;5048950;28;45494;-72
2022/12/05 01:29:47;;;;;;;;;41.00;31.50;;;;;;;;5054600;28;45289;-71
2022/12/05 01:32:12;;;;;;;;;51.50;37.75;;;;;;;;5049526;28;45912;-72
2022/12/05 01:34:37;;;;;;;;;43.75;35.75;;;;;;;;5053256;28;45675;-72
2022/12/05 01:37:03;;;;;;;;;47.00;37.25;;;;;;;;5043505;28;45452;-71
2022/12/05 01:39:28;;;;;;;;;53.75;41.50;;;;;;;;5025284;28;46283;-71
2022/12/05 01:41:53;;;;;;;;;46.25;36.00;;;;;;;;5044420;28;45949;-71
2022/12/05 01:44:21;;;;;;;;;38.50;38.00;;;;;;;;5047854;28;45248;-72
2022/12/05 01:46:48;;;;;;;;;47.00;40.50;;;;;;;;5032255;28;45342;-72
2022/12/05 01:49:31;;;;;;;;;50.00;37.25;;;;;;;;5048462;28;45489;-72
2022/12/05 01:51:59;;;;;;;;;51.50;38.50;;;;;;;;5044482;28;46466;-71
2022/12/05 01:54:25;;;;;;;;;52.25;40.00;;;;;;;;5034804;28;45285;-71
2022/12/05 01:57:00;;;;;;;;;45.75;37.75;;;;;;;;5047758;28;45782;-71
2022/12/05 01:59:28;;;;;;;;;51.00;41.75;;;;;;;;5047333;28;45572;-71
2022/12/05 02:01:53;;;;;;;;;55.25;42.50;;;;;;;;5043261;28;45377;-71
2022/12/05 02:04:18;;;;;;;;;53.75;41.75;;;;;;;;5029472;28;45486;-71
2022/12/05 02:06:43;;;;;;;;;41.50;38.25;;;;;;;;5044814;28;45511;-71
2022/12/05 02:09:08;;;;;;;;;46.50;37.25;;;;;;;;5026524;28;46848;-71
2022/12/05 02:11:36;;;;;;;;;44.75;35.75;;;;;;;;5035236;28;47199;-71
2022/12/05 02:14:25;;;;;;;;;60.75;45.25;;;;;;;;5035850;28;46457;-71
2022/12/05 02:17:09;;;;;;;;;58.25;44.75;;;;;;;;5050812;28;45415;-72
2022/12/05 02:19:41;;;;;;;;;50.50;37.00;;;;;;;;5034922;28;46054;-71
2022/12/05 02:22:31;;;;;;;;;56.00;43.00;;;;;;;;5026728;28;47356;-71
2022/12/05 02:25:02;;;;;;;;;64.00;47.00;;;;;;;;5046130;28;45511;-71
2022/12/05 02:27:45;;;;;;;;;57.25;46.00;;;;;;;;5050957;28;45226;-71
2022/12/05 02:30:13;;;;;;;;;58.00;42.00;;;;;;;;5047581;28;45301;-71
2022/12/05 02:32:50;;;;;;;;;54.50;42.50;;;;;;;;5046683;28;45262;-71
2022/12/05 02:35:25;;;;;;;;;50.00;42.25;;;;;;;;5033094;28;45705;-71
2022/12/05 02:38:01;;;;;;;;;58.75;41.75;;;;;;;;5033171;28;45258;-71
2022/12/05 02:40:33;;;;;;;;;52.50;41.25;;;;;;;;5044452;28;45397;-71
2022/12/05 02:43:11;;;;;;;;;61.25;43.75;;;;;;;;5045872;28;45578;-71
2022/12/05 02:45:38;;;;;;;;;54.75;44.00;;;;;;;;5048174;28;44769;-71
2022/12/05 02:48:04;;;;;;;;;53.00;42.75;;;;;;;;5047865;28;45289;-72
2022/12/05 02:50:33;;;;;;;;;59.25;45.50;;;;;;;;5048968;28;46408;-71
2022/12/05 02:53:01;;;;;;;;;55.50;44.50;;;;;;;;5040517;28;45230;-71
2022/12/05 02:55:27;;;;;;;;;60.25;41.75;;;;;;;;5032574;28;45952;-71
2022/12/05 02:57:55;;;;;;;;;53.50;44.00;;;;;;;;5047398;28;45273;-71
2022/12/05 03:00:20;;;;;;;;;62.25;45.75;;;;;;;;5042178;28;45236;-71
2022/12/05 03:02:47;;;;;;;;;59.00;44.75;;;;;;;;5045157;28;45234;-71
2022/12/05 03:05:22;;;;;;;;;58.75;47.50;;;;;;;;5044477;28;45344;-71
2022/12/05 03:07:49;;;;;;;;;57.75;46.50;;;;;;;;5036612;28;45243;-71
2022/12/05 03:10:16;;;;;;;;;58.25;45.75;;;;;;;;5048038;28;45341;-71
2022/12/05 03:12:46;;;;;;;;;58.00;43.00;;;;;;;;5033314;28;47024;-71
2022/12/05 03:15:14;;;;;;;;;54.00;44.00;;;;;;;;5029833;28;46114;-71
2022/12/05 03:17:43;;;;;;;;;58.25;44.25;;;;;;;;5031711;28;45250;-71
2022/12/05 03:20:13;;;;;;;;;60.75;48.25;;;;;;;;5048318;28;45499;-71
2022/12/05 03:22:45;;;;;;;;;61.50;43.75;;;;;;;;5052093;28;45336;-71
2022/12/05 03:25:11;;;;;;;;;72.00;53.00;;;;;;;;5042626;28;45369;-71
2022/12/05 03:27:45;;;;;;;;;60.00;46.25;;;;;;;;5040233;28;45256;-71
2022/12/05 03:30:15;;;;;;;;;62.50;49.00;;;;;;;;5043045;28;45514;-72
2022/12/05 03:32:44;;;;;;;;;64.25;46.75;;;;;;;;5042777;28;45238;-71
2022/12/05 03:35:15;;;;;;;;;83.00;65.67;;;;;;;;5046738;28;45266;-71
2022/12/05 03:37:44;;;;;;;;;63.25;45.00;;;;;;;;5045996;28;45270;-72
2022/12/05 03:40:14;;;;;;;;;56.75;42.50;;;;;;;;5043434;28;45452;-71
2022/12/05 03:42:44;;;;;;;;;57.50;46.25;;;;;;;;5045450;28;46794;-71
2022/12/05 03:45:10;;;;;;;;;62.25;44.75;;;;;;;;5048224;28;45528;-72
2022/12/05 03:47:39;;;;;;;;;52.75;41.25;;;;;;;;5047411;28;45281;-71
2022/12/05 03:50:09;;;;;;;;;62.75;44.00;;;;;;;;5050956;28;45534;-71
2022/12/05 03:52:39;;;;;;;;;57.50;45.50;;;;;;;;5031089;28;46803;-71
2022/12/05 03:55:06;;;;;;;;;63.50;47.00;;;;;;;;5053176;28;45297;-71
2022/12/05 03:57:42;;;;;;;;;66.50;45.50;;;;;;;;5057800;28;45542;-72
2022/12/05 04:00:19;;;;;;;;;67.50;46.75;;;;;;;;5055124;28;45348;-73
2022/12/05 04:02:56;;;;;;;;;55.50;43.50;;;;;;;;5051241;28;45468;-71
2022/12/05 04:05:24;;;;;;;;;60.50;46.25;;;;;;;;5051179;28;45313;-73
2022/12/05 04:07:54;;;;;;;;;78.33;57.00;;;;;;;;5044783;28;45265;-73
2022/12/05 04:10:22;;;;;;;;;56.00;43.00;;;;;;;;5051368;28;45457;-73
2022/12/05 04:12:50;;;;;;;;;57.25;45.00;;;;;;;;5038026;28;47270;-73
2022/12/05 04:15:22;;;;;;;;;83.67;62.00;;;;;;;;5051155;28;45463;-73
2022/12/05 04:17:53;;;;;;;;;62.25;46.00;;;;;;;;5035497;28;45255;-71
2022/12/05 04:23:18;;;;;;;;;70.67;50.00;;;;;;;;5053266;28;45167;-73
2022/12/05 04:25:56;;;;;;;;;56.25;42.00;;;;;;;;5047526;28;45803;-74
2022/12/05 04:28:29;;;;;;;;;66.50;48.25;;;;;;;;5060584;28;45312;-73
2022/12/05 04:31:04;;;;;;;;;60.00;46.75;;;;;;;;5032385;28;46101;-73
2022/12/05 04:33:39;;;;;;;;;63.75;48.00;;;;;;;;5049224;28;45324;-73
2022/12/05 04:36:10;;;;;;;;;57.50;43.50;;;;;;;;5031096;28;45269;-71
2022/12/05 04:38:48;;;;;;;;;60.75;45.25;;;;;;;;5060732;28;45409;-73
2022/12/05 04:41:16;;;;;;;;;62.00;45.00;;;;;;;;5042397;28;45600;-73
2022/12/05 04:43:43;;;;;;;;;58.25;45.25;;;;;;;;5042278;28;45585;-73
2022/12/05 04:46:10;;;;;;;;;58.50;41.25;;;;;;;;5046739;28;45317;-74
2022/12/05 04:48:37;;;;;;;;;50.50;43.75;;;;;;;;5045053;28;44772;-73
2022/12/05 04:51:03;;;;;;;;;84.00;65.67;;;;;;;;5045239;28;45558;-73
2022/12/05 04:53:28;;;;;;;;;69.33;52.00;;;;;;;;5046011;28;45419;-73
2022/12/05 04:55:56;;;;;;;;;54.25;42.50;;;;;;;;5037110;28;45252;-74
2022/12/05 04:58:23;;;;;;;;;55.25;46.00;;;;;;;;5059416;28;45463;-74
2022/12/05 05:00:54;;;;;;;;;66.00;50.00;;;;;;;;5050147;28;45462;-74
2022/12/05 05:03:23;;;;;;;;;75.67;58.67;;;;;;;;5050657;28;45256;-73
2022/12/05 05:05:50;;;;;;;;;50.75;42.00;;;;;;;;5050466;28;44898;-71
2022/12/05 05:08:19;;;;;;;;;63.75;45.50;;;;;;;;5052602;28;45478;-73
2022/12/05 05:11:03;;;;;;;;;52.50;42.50;;;;;;;;5052732;28;45234;-73
2022/12/05 05:13:28;;;;;;;;;60.50;44.00;;;;;;;;5036276;28;46820;-71
2022/12/05 05:15:53;;;;;;;;;58.00;43.25;;;;;;;;5030308;28;45482;-73
2022/12/05 05:18:18;;;;;;;;;52.00;42.75;;;;;;;;5044516;28;45237;-73
2022/12/05 05:20:43;;;;;;;;;58.00;44.75;;;;;;;;5030292;28;45218;-73
2022/12/05 05:23:09;;;;;;;;;62.50;45.25;;;;;;;;5033193;28;46473;-73
2022/12/05 05:25:34;;;;;;;;;60.75;45.00;;;;;;;;5047114;28;45391;-73
2022/12/05 05:27:59;;;;;;;;;49.50;43.00;;;;;;;;5049821;28;45276;-71
2022/12/05 05:30:25;;;;;;;;;61.75;48.75;;;;;;;;5034766;28;45432;-73
2022/12/05 05:32:50;;;;;;;;;61.25;47.25;;;;;;;;5050992;28;45919;-71
2022/12/05 05:35:15;;;;;;;;;50.75;42.00;;;;;;;;5049422;28;45154;-73
2022/12/05 05:37:41;;;;;;;;;57.25;43.00;;;;;;;;5054139;28;45212;-73
2022/12/05 05:40:07;;;;;;;;;62.00;46.75;;;;;;;;5054054;28;45792;-73
2022/12/05 05:42:33;;;;;;;;;57.50;43.75;;;;;;;;5024728;28;47342;-73
2022/12/05 05:44:58;;;;;;;;;57.25;46.00;;;;;;;;5051385;28;45413;-73
2022/12/05 05:47:23;;;;;;;;;60.25;47.00;;;;;;;;5027603;28;45483;-73
2022/12/05 05:49:48;;;;;;;;;52.00;42.75;;;;;;;;5025559;28;45681;-73
2022/12/05 05:52:14;;;;;;;;;59.75;43.50;;;;;;;;5048934;28;45364;-73
2022/12/05 05:54:39;;;;;;;;;64.50;43.00;;;;;;;;5042160;28;45268;-73
2022/12/05 05:57:04;;;;;;;;;50.25;40.75;;;;;;;;5052213;28;44800;-73
2022/12/05 05:59:30;;;;;;;;;55.50;43.25;;;;;;;;5029601;28;45740;-73
2022/12/05 06:01:55;;;;;;;;;52.25;43.00;;;;;;;;5032096;28;46775;-73
2022/12/05 06:04:20;;;;;;;;;50.25;41.25;;;;;;;;5049072;28;45374;-73
2022/12/05 06:06:45;;;;;;;;;58.25;42.00;;;;;;;;5048730;28;45427;-73
2022/12/05 06:09:10;;;;;;;;;62.25;44.75;;;;;;;;5053360;28;45313;-73
2022/12/05 06:11:36;;;;;;;;;58.25;43.00;;;;;;;;5050084;28;45261;-71
2022/12/05 06:14:01;;;;;;;;;64.50;45.00;;;;;;;;5055566;28;45323;-73
2022/12/05 06:16:26;;;;;;;;;60.75;46.00;;;;;;;;5025317;28;45430;-73
2022/12/05 06:18:52;;;;;;;;;51.25;41.50;;;;;;;;5057957;28;45485;-73
2022/12/05 06:21:17;;;;;;;;;51.75;43.00;;;;;;;;5045115;28;46374;-73
2022/12/05 06:23:43;;;;;;;;;54.50;44.00;;;;;;;;5048508;28;45236;-73
2022/12/05 06:26:12;;;;;;;;;55.00;42.75;;;;;;;;5028329;28;45274;-73
2022/12/05 06:28:38;;;;;;;;;50.50;38.75;;;;;;;;5051907;28;45328;-73
2022/12/05 06:31:10;;;;;;;;;47.25;41.25;;;;;;;;5046255;28;46090;-73
2022/12/05 06:33:36;;;;;;;;;54.50;43.75;;;;;;;;5036557;28;45196;-73
2022/12/05 06:36:06;;;;;;;;;35.25;32.75;;;;;;;;5041981;28;45429;-73
2022/12/05 06:38:31;;;;;;;;;49.25;42.50;;;;;;;;5049051;28;45310;-73
2022/12/05 06:40:57;;;;;;;;;53.00;40.50;;;;;;;;5032534;28;46028;-73
2022/12/05 06:43:22;;;;;;;;;59.75;46.00;;;;;;;;5032333;28;45623;-73
2022/12/05 06:45:47;;;;;;;;;63.25;43.75;;;;;;;;5049819;28;45267;-73
2022/12/05 06:48:13;;;;;;;;;51.25;39.00;;;;;;;;5022558;28;45368;-73
2022/12/05 06:50:38;;;;;;;;;53.50;42.00;;;;;;;;5033107;28;47469;-73
2022/12/05 06:53:03;;;;;;;;;48.00;39.50;;;;;;;;5041755;28;45301;-73
2022/12/05 06:55:28;;;;;;;;;52.75;44.75;;;;;;;;5042379;28;46697;-73
2022/12/05 06:57:53;;;;;;;;;54.50;42.50;;;;;;;;5051551;28;45376;-73
2022/12/05 07:03:02;;;;;;;;;57.50;41.00;;;;;;;;5047125;28;45423;-73
2022/12/05 07:05:28;;;;;;;;;55.25;43.75;;;;;;;;5048216;28;45370;-73
2022/12/05 07:07:53;;;;;;;;;42.00;39.50;;;;;;;;5050361;28;45215;-74
2022/12/05 07:10:18;;;;;;;;;54.50;41.75;;;;;;;;5048627;28;45511;-73
2022/12/05 07:12:43;;;;;;;;;48.25;39.75;;;;;;;;5053412;28;45214;-73
2022/12/05 07:15:09;;;;;;;;;58.75;42.75;;;;;;;;5046358;28;45266;-74
2022/12/05 07:17:35;;;;;;;;;45.50;39.25;;;;;;;;5054539;28;45291;-72
2022/12/05 07:20:01;;;;;;;;;57.50;45.50;;;;;;;;5054198;28;46504;-72
2022/12/05 07:22:26;;;;;;;;;59.25;46.00;;;;;;;;5028925;28;45263;-73
2022/12/05 07:24:52;;;;;;;;;59.50;44.00;;;;;;;;5037427;28;45322;-74
2022/12/05 07:27:17;;;;;;;;;71.00;51.50;;;;;;;;5048465;28;45510;-74
2022/12/05 07:29:42;;;;;;;;;56.25;41.00;;;;;;;;5039167;28;45623;-73
2022/12/05 07:32:08;;;;;;;;;49.50;35.75;;;;;;;;5050890;28;45551;-74
2022/12/05 07:34:33;;;;;;;;;57.50;46.50;;;;;;;;5053847;28;45483;-73
2022/12/05 07:36:59;;;;;;;;;51.25;43.25;;;;;;;;5042239;28;45433;-73
2022/12/05 07:39:24;;;;;;;;;43.50;38.75;;;;;;;;5053487;28;45337;-74
2022/12/05 07:41:49;;;;;;;;;62.25;44.75;;;;;;;;5058200;28;45417;-74
2022/12/05 07:44:14;;;;;;;;;58.75;42.50;;;;;;;;5057908;28;45239;-74
2022/12/05 07:46:39;;;;;;;;;65.50;49.25;;;;;;;;5057926;28;44789;-74
2022/12/05 07:49:05;;;;;;;;;58.50;43.25;;;;;;;;5057956;28;45514;-74
2022/12/05 07:51:31;;;;;;;;;66.75;49.75;;;;;;;;5050720;28;45412;-74
2022/12/05 07:53:57;;;;;;;;;49.25;41.50;;;;;;;;5035802;28;45285;-73
2022/12/05 07:56:22;;;;;;;;;54.00;40.75;;;;;;;;5053691;28;45477;-74
2022/12/05 07:58:48;;;;;;;;;65.00;47.75;;;;;;;;5041939;28;46284;-73
2022/12/05 08:01:14;;;;;;;;;65.67;52.33;;;;;;;;5056079;28;45390;-73
2022/12/05 08:03:39;;;;;;;;;65.67;46.00;;;;;;;;5040628;28;44862;-74
2022/12/05 08:06:05;;;;;;;;;62.33;49.67;;;;;;;;5052519;28;45473;-74
2022/12/05 08:08:31;;;;;;;;;68.00;50.33;;;;;;;;5052648;28;45312;-74
2022/12/05 08:11:01;;;;;;;;;68.67;50.00;;;;;;;;5052750;28;45338;-74
2022/12/05 08:13:27;;;;;;;;;68.00;48.33;;;;;;;;5055361;28;45355;-74
2022/12/05 08:15:53;;;;;;;;;59.75;46.00;;;;;;;;5054329;28;45403;-74
2022/12/05 08:18:18;;;;;;;;;54.25;43.75;;;;;;;;5039034;28;47988;-74
2022/12/05 08:20:43;;;;;;;;;58.67;47.33;;;;;;;;5048293;28;45306;-74
2022/12/05 08:23:08;;;;;;;;;64.67;48.00;;;;;;;;5048538;28;45254;-74
2022/12/05 08:25:33;;;;;;;;;63.67;48.67;;;;;;;;5048335;28;45364;-74
2022/12/05 08:27:59;;;;;;;;;69.00;50.50;;;;;;;;5050319;28;45440;-74
2022/12/05 08:30:24;;;;;;;;;63.75;45.25;;;;;;;;5054716;28;46536;-73
2022/12/05 08:32:49;;;;;;;;;56.50;43.50;;;;;;;;5053524;28;45220;-73
2022/12/05 08:35:15;;;;;;;;;64.00;50.00;;;;;;;;5049913;28;45313;-73
2022/12/05 08:37:40;;;;;;;;;80.67;60.33;;;;;;;;5044512;28;45254;-73
2022/12/05 08:40:06;;;;;;;;;70.33;52.67;;;;;;;;5051237;28;45392;-73
2022/12/05 08:42:31;;;;;;;;;67.25;49.25;;;;;;;;5045656;28;45203;-74
2022/12/05 08:44:56;;;;;;;;;70.25;50.00;;;;;;;;5039374;28;47013;-73
2022/12/05 08:47:21;;;;;;;;;64.50;47.25;;;;;;;;5034887;28;47056;-73
2022/12/05 08:49:47;;;;;;;;;59.75;45.75;;;;;;;;5056592;28;45445;-73
2022/12/05 08:52:12;;;;;;;;;67.50;49.75;;;;;;;;5048196;28;45350;-73
2022/12/05 08:54:37;;;;;;;;;67.67;50.00;;;;;;;;5049361;28;45361;-73
2022/12/05 08:57:02;;;;;;;;;92.67;66.67;;;;;;;;5054642;28;45476;-72
2022/12/05 08:59:28;;;;;;;;;63.50;48.25;;;;;;;;5053189;28;45415;-73
2022/12/05 09:01:53;;;;;;;;;85.00;58.67;;;;;;;;5044316;28;45309;-72
2022/12/05 09:04:18;;;;;;;;;60.67;50.00;;;;;;;;5052131;28;45409;-73
2022/12/05 09:06:43;;;;;;;;;60.67;46.33;;;;;;;;5049786;28;45374;-72
2022/12/05 09:09:10;;;;;;;;;62.75;44.75;;;;;;;;5036076;28;45847;-72
2022/12/05 09:11:37;;;;;;;;;64.00;47.75;;;;;;;;5054199;28;45337;-72
2022/12/05 09:14:02;;;;;;;;;63.75;49.75;;;;;;;;5057850;28;45303;-72
2022/12/05 09:16:29;;;;;;;;;56.75;40.75;;;;;;;;5045330;28;46122;-72
2022/12/05 09:18:54;;;;;;;;;60.25;43.25;;;;;;;;5053025;28;45270;-72
2022/12/05 09:21:21;;;;;;;;;51.50;43.00;;;;;;;;5045967;28;45281;-72
2022/12/05 09:23:46;;;;;;;;;59.25;43.50;;;;;;;;5042773;28;45413;-72
2022/12/05 09:26:12;;;;;;;;;64.75;50.00;;;;;;;;5047621;28;48408;-72
2022/12/05 09:28:38;;;;;;;;;63.50;47.50;;;;;;;;5049708;28;45372;-72
2022/12/05 09:31:06;;;;;;;;;65.00;51.00;;;;;;;;5048816;28;45329;-72
2022/12/05 09:33:33;;;;;;;;;64.25;46.50;;;;;;;;5051211;28;45451;-72
2022/12/05 09:36:00;;;;;;;;;64.75;49.50;;;;;;;;5044117;28;46373;-72
2022/12/05 09:38:26;;;;;;;;;65.00;49.00;;;;;;;;5030562;28;45305;-73
2022/12/05 09:41:03;;;;;;;;;66.25;46.75;;;;;;;;5044491;28;45329;-72
2022/12/05 09:43:36;;;;;;;;;63.50;48.75;;;;;;;;5050846;28;45254;-73
2022/12/05 09:46:31;;;;;;;;;55.50;45.25;;;;;;;;5029732;28;47235;-72
2022/12/05 09:48:57;;;;;;;;;64.00;50.25;;;;;;;;4999482;28;45307;-72
2022/12/05 09:51:23;;;;;;;;;66.25;49.00;;;;;;;;5028945;28;45500;-72
2022/12/05 09:53:48;;;;;;;;;60.50;43.50;;;;;;;;5023813;28;45464;-72
2022/12/05 09:56:22;;;;;;;;;62.75;45.50;;;;;;;;5034714;28;45428;-72
2022/12/05 09:58:49;;;;;;;;;58.75;47.50;;;;;;;;5048413;28;45454;-72
2022/12/05 10:01:33;;;;;;;;;63.50;50.50;;;;;;;;5048786;28;45285;-72
2022/12/05 10:04:10;;;;;;;;;55.50;42.75;;;;;;;;5056144;28;45464;-72
2022/12/05 10:06:39;;;;;;;;;98.00;78.00;;;;;;;;5033924;28;47424;-72
2022/12/05 10:09:23;;;;;;;;;84.67;65.67;;;;;;;;5051741;28;45293;-73
2022/12/05 10:12:12;;;;;;;;;65.00;50.75;;;;;;;;5043434;28;45508;-77
2022/12/05 10:14:48;;;;;;;;;66.25;50.75;;;;;;;;5013346;28;45421;-77
2022/12/05 10:17:33;;;;;;;;;59.25;49.25;;;;;;;;5033099;28;47246;-77
2022/12/05 10:20:00;;;;;;;;;61.75;51.25;;;;;;;;5032620;28;45466;-77
2022/12/05 10:22:42;;;;;;;;;63.50;49.25;;;;;;;;5052331;28;44781;-78
2022/12/05 10:25:09;;;;;;;;;72.50;54.50;;;;;;;;5050987;28;45539;-76
2022/12/05 10:27:36;;;;;;;;;65.50;45.75;;;;;;;;5033060;28;46971;-78
2022/12/05 10:30:04;;;;;;;;;67.75;51.25;;;;;;;;5053988;28;45502;-79
2022/12/05 10:32:36;;;;;;;;;73.67;57.33;;;;;;;;5044483;28;45300;-79
2022/12/05 10:35:21;;;;;;;;;118.75;96.00;;;;;;;;5045793;28;45332;-77
2022/12/05 10:37:48;;;;;;;;;67.50;51.50;;;;;;;;5043998;28;45432;-77
2022/12/05 10:40:14;;;;;;;;;68.25;49.50;;;;;;;;5046490;28;44855;-77
2022/12/05 10:42:39;;;;;;;;;64.25;49.75;;;;;;;;5043748;28;45460;-77
2022/12/05 10:45:06;;;;;;;;;64.25;48.75;;;;;;;;5042549;28;45467;-77
2022/12/05 10:47:32;;;;;;;;;70.75;51.50;;;;;;;;5058089;28;45236;-77
2022/12/05 10:49:59;;;;;;;;;66.50;51.75;;;;;;;;5051463;28;45245;-78
2022/12/05 10:52:24;;;;;;;;;71.00;52.33;;;;;;;;5058300;28;44711;-79
2022/12/05 10:55:09;;;;;;;;;69.75;52.00;;;;;;;;5052438;28;45388;-79
2022/12/05 10:57:35;;;;;;;;;91.00;69.00;;;;;;;;5059554;28;45598;-77
2022/12/05 11:00:12;;;;;;;;;78.33;59.00;;;;;;;;5055168;28;45426;-78
2022/12/05 11:02:38;;;;;;;;;73.00;56.33;;;;;;;;5043756;28;45479;-77
2022/12/05 11:05:03;;;;;;;;;68.67;54.67;;;;;;;;5052642;28;45238;-78
2022/12/05 11:07:43;;;;;;;;;66.75;50.75;;;;;;;;5058014;28;46538;-76
2022/12/05 11:10:17;;;;;;;;;68.25;52.00;;;;;;;;5049579;28;45357;-79
2022/12/05 11:12:43;;;;;;;;;66.00;51.00;;;;;;;;5053644;28;45408;-78
2022/12/05 11:15:14;;;;;;;;;71.00;51.50;;;;;;;;5049315;28;45408;-78
2022/12/05 11:17:39;;;;;;;;;66.75;49.50;;;;;;;;5034946;28;47478;-78
2022/12/05 11:20:17;;;;;;;;;63.25;48.50;;;;;;;;5052427;28;45380;-78
2022/12/05 11:22:42;;;;;;;;;72.50;49.00;;;;;;;;5058210;28;45517;-78
2022/12/05 11:25:26;;;;;;;;;63.25;49.00;;;;;;;;5050858;28;45334;-79
2022/12/05 11:27:51;;;;;;;;;67.75;53.50;;;;;;;;5049917;28;45293;-78
2022/12/05 11:30:19;;;;;;;;;67.00;51.75;;;;;;;;5050156;28;45332;-78
2022/12/05 11:32:44;;;;;;;;;64.75;49.00;;;;;;;;5030850;28;45495;-77
2022/12/05 11:35:12;;;;;;;;;67.75;49.50;;;;;;;;5049298;28;45423;-78
2022/12/05 11:37:57;;;;;;;;;70.00;54.50;;;;;;;;5043801;28;46341;-78
2022/12/05 11:40:31;;;;;;;;;59.75;45.50;;;;;;;;5032595;28;45350;-76
2022/12/05 11:43:00;;;;;;;;;64.75;50.25;;;;;;;;5026048;28;45263;-76
2022/12/05 11:45:32;;;;;;;;;65.25;51.00;;;;;;;;5042769;28;45315;-77
2022/12/05 11:48:08;;;;;;;;;60.00;46.25;;;;;;;;5049245;28;45281;-77
2022/12/05 11:50:41;;;;;;;;;70.25;50.25;;;;;;;;5044540;28;45246;-78
2022/12/05 11:53:26;;;;;;;;;69.25;49.50;;;;;;;;5050377;28;45386;-77
2022/12/05 11:55:51;;;;;;;;;62.50;44.00;;;;;;;;5028656;28;45353;-78
2022/12/05 11:58:36;;;;;;;;;63.75;45.50;;;;;;;;5048968;28;45432;-78
2022/12/05 12:01:04;;;;;;;;;66.00;47.25;;;;;;;;5045617;28;45379;-77
2022/12/05 12:03:43;;;;;;;;;64.50;47.50;;;;;;;;5038495;28;44621;-78
2022/12/05 12:06:46;;;;;;;;;65.75;50.50;;;;;;;;5049351;28;45356;-75
2022/12/05 12:09:18;;;;;;;;;67.25;49.00;;;;;;;;4955906;28;47090;-75
2022/12/05 12:11:43;;;;;;;;;64.00;49.25;;;;;;;;4979553;28;45422;-75
2022/12/05 12:14:27;;;;;;;;;72.75;52.00;;;;;;;;5020853;28;45560;-76
2022/12/05 12:17:15;;;;;;;;;62.25;49.00;;;;;;;;5060946;28;45336;-78
2022/12/05 12:19:55;;;;;;;;;60.00;47.75;;;;;;;;5014121;28;45443;-75
2022/12/05 12:22:35;;;;;;;;;66.25;48.75;;;;;;;;5053271;28;45254;-76
2022/12/05 12:25:03;;;;;;;;;66.50;46.25;;;;;;;;5045240;28;45471;-76
2022/12/05 12:27:28;;;;;;;;;63.50;47.75;;;;;;;;5027922;28;46151;-76
2022/12/05 12:29:57;;;;;;;;;74.75;48.75;;;;;;;;5040922;28;46129;-76
2022/12/05 12:32:37;;;;;;;;;62.25;49.50;;;;;;;;5045754;28;45371;-79
2022/12/05 12:35:06;;;;;;;;;60.50;45.75;;;;;;;;5028074;28;45361;-76
2022/12/05 12:37:48;;;;;;;;;58.25;46.75;;;;;;;;5042877;28;45292;-77
2022/12/05 12:40:16;;;;;;;;;60.25;45.25;;;;;;;;5050620;28;45553;-76
2022/12/05 12:43:01;;;;;;;;;59.25;43.75;;;;;;;;5046714;28;45324;-76
2022/12/05 12:45:32;;;;;;;;;59.00;44.25;;;;;;;;5048227;28;45297;-76
2022/12/05 12:48:12;;;;;;;;;58.75;46.25;;;;;;;;5047751;28;45380;-76
2022/12/05 12:50:41;;;;;;;;;64.75;47.50;;;;;;;;5037399;28;45674;-76
2022/12/05 12:53:13;;;;;;;;;60.25;48.00;;;;;;;;5062439;28;45245;-77
2022/12/05 12:55:59;;;;;;;;;62.75;46.00;;;;;;;;5055936;28;45329;-76
2022/12/05 12:58:24;;;;;;;;;63.75;46.00;;;;;;;;5035869;28;46079;-76
2022/12/05 13:00:58;;;;;;;;;63.25;47.00;;;;;;;;5037275;28;47295;-77
2022/12/05 13:03:38;;;;;;;;;59.50;47.75;;;;;;;;5043586;28;45312;-76
2022/12/05 13:06:08;;;;;;;;;69.25;50.50;;;;;;;;5036211;28;45612;-76
2022/12/05 13:08:38;;;;;;;;;61.50;47.50;;;;;;;;5056237;28;45453;-75
2022/12/05 13:11:07;;;;;;;;;64.50;47.50;;;;;;;;5037044;28;47483;-75
2022/12/05 13:13:35;;;;;;;;;51.75;41.00;;;;;;;;5050043;28;45441;-76
2022/12/05 13:16:05;;;;;;;;;56.75;43.25;;;;;;;;5030888;28;45525;-79
2022/12/05 13:18:30;;;;;;;;;56.25;43.25;;;;;;;;5035135;28;45920;-76
2022/12/05 13:20:56;;;;;;;;;58.00;42.25;;;;;;;;5043935;28;45446;-76
2022/12/05 13:23:23;;;;;;;;;61.25;48.00;;;;;;;;5037332;28;45556;-77
2022/12/05 13:25:50;;;;;;;;;56.75;43.50;;;;;;;;5048136;28;45361;-76
2022/12/05 13:28:24;;;;;;;;;64.25;49.00;;;;;;;;5057890;28;45409;-77
2022/12/05 13:31:00;;;;;;;;;54.00;43.50;;;;;;;;5045628;28;45428;-77
2022/12/05 13:33:30;;;;;;;;;58.25;44.50;;;;;;;;5042383;28;45346;-77
2022/12/05 13:44:37;;;;;;;;;61.00;44.50;;;;;;;;5046363;28;44694;-76
2022/12/05 13:47:06;;;;;;;;;42.50;37.25;;;;;;;;5042668;28;45353;-77
2022/12/05 13:49:35;;;;;;;;;52.00;42.00;;;;;;;;5033037;28;45321;-77
2022/12/05 13:52:23;;;;;;;;;61.25;46.00;;;;;;;;5047965;28;45246;-76
2022/12/05 13:54:56;;;;;;;;;58.75;44.75;;;;;;;;5016336;28;45423;-77
2022/12/05 13:57:37;;;;;;;;;48.50;39.00;;;;;;;;5055230;28;45222;-76
2022/12/05 14:00:08;;;;;;;;;54.00;44.75;;;;;;;;5052136;28;45264;-77
2022/12/05 14:02:40;;;;;;;;;55.25;41.50;;;;;;;;5041670;28;45335;-77
2022/12/05 14:05:26;;;;;;;;;53.50;42.50;;;;;;;;5053444;28;45604;-76
2022/12/05 14:07:55;;;;;;;;;49.75;40.25;;;;;;;;5056084;28;45494;-77
2022/12/05 14:10:20;;;;;;;;;58.00;42.75;;;;;;;;5054567;28;45331;-78
2022/12/05 14:12:56;;;;;;;;;48.75;42.00;;;;;;;;5039055;28;47376;-77
2022/12/05 14:15:32;;;;;;;;;53.50;40.75;;;;;;;;5048893;28;45432;-77
2022/12/05 14:18:09;;;;;;;;;56.25;42.50;;;;;;;;5035204;28;45302;-77
2022/12/05 14:20:44;;;;;;;;;48.50;40.00;;;;;;;;5042782;28;45535;-77
2022/12/05 14:23:19;;;;;;;;;48.50;38.50;;;;;;;;5057372;28;45288;-76
2022/12/05 14:25:59;;;;;;;;;49.50;39.75;;;;;;;;5044575;28;45444;-77
2022/12/05 14:28:34;;;;;;;;;56.00;44.25;;;;;;;;5058548;28;45500;-77
2022/12/05 14:31:01;;;;;;;;;62.25;47.75;;;;;;;;5042164;28;45337;-77
2022/12/05 14:33:27;;;;;;;;;57.50;47.25;;;;;;;;5059097;28;45352;-77
2022/12/05 14:35:52;;;;;;;;;50.25;44.00;;;;;;;;5048494;28;44861;-77
2022/12/05 14:38:20;;;;;;;;;49.50;40.75;;;;;;;;5042398;28;45421;-77
2022/12/05 14:40:46;;;;;;;;;46.25;38.25;;;;;;;;5049159;28;45401;-77
2022/12/05 14:43:19;;;;;;;;;52.50;42.00;;;;;;;;5048585;28;45506;-76